Time;durP1;ratioP1;P1;durP2;ratioP2;P2;SDS_P1;SDS_P2;PMS_P1;PMS_P2;Temp;Humidity;BMP_temperature;BMP_pressure;BME280_temperature;BME280_humidity;BME280_pressure;Samples;Min_cycle;Max_cycle;Signal;HPM_P1;HPM_P2
2022/12/14 00:02:25;;;;;;;;;;;;;;;18.20;56.28;100326.28;2212677;79;22006;-75
2022/12/14 00:05:27;;;;;;;;;;;;;;;18.25;56.26;100331.89;2189705;79;50312;-73
2022/12/14 00:08:29;;;;;;;;;;;;;;;18.30;56.22;100325.47;2211308;80;51533;-75
2022/12/14 00:11:32;;;;;;;;;;;;;;;18.32;56.16;100318.08;2225732;79;50983;-74
2022/12/14 00:14:33;;;;;;;;;;;;;;;18.38;56.10;100313.81;2248207;79;50390;-74
2022/12/14 00:17:35;;;;;;;;;;;;;;;18.40;56.08;100309.09;2221893;79;50294;-74
2022/12/14 00:20:36;;;;;;;;;;;;;;;18.40;56.12;100305.91;2232917;78;50622;-75
2022/12/14 00:23:39;;;;;;;;;;;;;;;18.38;56.14;100302.58;2178892;79;53046;-75
2022/12/14 00:26:40;;;;;;;;;;;;;;;18.36;56.19;100292.55;2218129;79;51606;-75
2022/12/14 00:29:42;;;;;;;;;;;;;;;18.34;56.25;100308.01;2204274;79;50310;-75
2022/12/14 00:32:43;;;;;;;;;;;;;;;18.28;56.34;100294.02;2216184;79;50393;-74
2022/12/14 00:35:45;;;;;;;;;;;;;;;18.26;56.34;100293.38;2218473;79;51108;-74
2022/12/14 00:38:47;;;;;;;;;;;;;;;18.19;56.42;100287.14;2246154;79;50727;-74
2022/12/14 00:41:48;;;;;;;;;;;;;;;18.17;56.54;100291.33;2239637;79;50101;-75
2022/12/14 00:44:50;;;;;;;;;;;;;;;18.15;56.66;100292.54;2211691;80;50831;-75
2022/12/14 00:47:51;;;;;;;;;;;;;;;18.18;56.61;100290.81;2190344;79;51722;-75
2022/12/14 00:50:53;;;;;;;;;;;;;;;18.24;56.54;100284.72;2211668;80;51534;-76
2022/12/14 00:53:55;;;;;;;;;;;;;;;18.25;56.67;100287.70;2224055;79;50278;-75
2022/12/14 00:56:56;;;;;;;;;;;;;;;18.26;56.63;100288.02;2231989;79;50597;-76
2022/12/14 00:59:58;;;;;;;;;;;;;;;18.30;56.53;100291.98;2218382;79;51007;-75
2022/12/14 01:03:00;;;;;;;;;;;;;;;18.32;56.48;100296.66;2194045;79;52174;-75
2022/12/14 01:06:01;;;;;;;;;;;;;;;18.34;56.43;100298.64;2211676;80;51465;-74
2022/12/14 01:09:03;;;;;;;;;;;;;;;18.36;56.42;100294.41;2243034;79;51508;-74
2022/12/14 01:12:05;;;;;;;;;;;;;;;18.37;56.37;100292.03;2196185;79;50886;-74
2022/12/14 01:15:06;;;;;;;;;;;;;;;18.37;56.34;100287.53;2244490;79;51531;-74
2022/12/14 01:18:08;;;;;;;;;;;;;;;18.33;56.37;100286.24;2207291;79;51527;-74
2022/12/14 01:21:10;;;;;;;;;;;;;;;18.31;56.46;100282.92;2183390;80;51456;-74
2022/12/14 01:24:12;;;;;;;;;;;;;;;18.27;56.49;100281.66;2229610;79;49686;-75
2022/12/14 01:27:14;;;;;;;;;;;;;;;18.23;56.61;100279.03;2218293;79;50405;-75
2022/12/14 01:30:17;;;;;;;;;;;;;;;18.18;56.62;100268.88;2242401;79;50233;-74
2022/12/14 01:33:18;;;;;;;;;;;;;;;18.16;56.72;100274.11;2227778;79;50723;-74
2022/12/14 01:36:21;;;;;;;;;;;;;;;18.14;56.78;100271.63;2164358;81;51768;-76
2022/12/14 01:39:23;;;;;;;;;;;;;;;18.15;56.79;100271.12;2232746;79;50645;-75
2022/12/14 01:42:24;;;;;;;;;;;;;;;18.17;56.71;100263.73;2240388;79;51553;-75
2022/12/14 01:45:26;;;;;;;;;;;;;;;18.19;56.67;100267.05;2215772;79;51445;-75
2022/12/14 01:48:28;;;;;;;;;;;;;;;18.25;56.56;100267.11;2195086;79;52860;-75
2022/12/14 01:51:30;;;;;;;;;;;;;;;18.28;56.47;100263.22;2238812;79;50689;-75
2022/12/14 01:54:31;;;;;;;;;;;;;;;18.31;56.39;100265.51;2241900;79;51526;-75
2022/12/14 01:57:38;;;;;;;;;;;;;;;18.36;56.25;100256.91;2217586;78;50756;-75
2022/12/14 02:00:39;;;;;;;;;;;;;;;18.38;56.18;100266.41;2206117;80;50960;-75
2022/12/14 02:03:41;;;;;;;;;;;;;;;18.36;56.16;100260.41;2186386;80;51630;-74
2022/12/14 02:06:43;;;;;;;;;;;;;;;18.34;56.15;100253.10;2214071;78;50757;-75
2022/12/14 02:09:45;;;;;;;;;;;;;;;18.32;56.17;100256.47;2211869;80;51518;-74
2022/12/14 02:12:50;;;;;;;;;;;;;;;18.26;56.20;100250.52;2227825;79;52612;-75
2022/12/14 02:15:52;;;;;;;;;;;;;;;18.23;56.20;100255.75;2216992;79;51673;-75
2022/12/14 02:18:53;;;;;;;;;;;;;;;18.18;56.28;100256.00;2212408;79;51446;-74
2022/12/14 02:22:13;;;;;;;;;;;;;;;18.14;56.37;100245.38;2213872;79;50640;-75
2022/12/14 02:25:33;;;;;;;;;;;;;;;18.13;56.46;100246.38;2234481;79;50292;-75
2022/12/14 02:28:49;;;;;;;;;;;;;;;18.15;56.45;100247.02;2192421;79;51036;-75
2022/12/14 02:32:04;;;;;;;;;;;;;;;18.17;56.33;100249.83;2212323;79;51504;-73
2022/12/14 02:35:13;;;;;;;;;;;;;;;18.22;56.27;100253.28;2213756;79;50409;-76
2022/12/14 02:38:16;;;;;;;;;;;;;;;18.21;56.31;100255.14;2210064;79;51646;-73
2022/12/14 02:41:26;;;;;;;;;;;;;;;18.25;56.31;100255.05;2242984;79;50165;-74
2022/12/14 02:44:29;;;;;;;;;;;;;;;18.28;56.26;100247.97;2230362;79;50431;-74
2022/12/14 02:47:32;;;;;;;;;;;;;;;18.33;56.14;100248.75;2204583;79;50482;-75
2022/12/14 02:50:35;;;;;;;;;;;;;;;18.35;56.09;100242.70;2213529;79;50344;-75
2022/12/14 02:53:38;;;;;;;;;;;;;;;18.33;56.13;100240.71;2211558;79;51364;-75
2022/12/14 02:56:42;;;;;;;;;;;;;;;18.33;56.14;100242.05;2180640;79;50431;-74
2022/12/14 02:59:43;;;;;;;;;;;;;;;18.31;56.19;100244.60;2231240;78;50483;-75
2022/12/14 03:02:45;;;;;;;;;;;;;;;18.25;56.25;100238.98;2215500;79;50417;-74
2022/12/14 03:05:57;;;;;;;;;;;;;;;18.21;56.29;100240.41;2248323;79;50407;-75
2022/12/14 03:09:03;;;;;;;;;;;;;;;18.16;56.28;100228.58;2229995;79;51587;-75
2022/12/14 03:12:06;;;;;;;;;;;;;;;18.13;56.36;100224.95;2211785;79;50684;-74
2022/12/14 03:15:08;;;;;;;;;;;;;;;18.10;56.47;100226.67;2218868;79;51582;-75
2022/12/14 03:18:11;;;;;;;;;;;;;;;18.12;56.43;100227.32;2211082;79;52498;-75
2022/12/14 03:21:13;;;;;;;;;;;;;;;18.17;56.30;100219.55;2213821;79;50726;-75
2022/12/14 03:24:16;;;;;;;;;;;;;;;18.18;56.25;100220.68;2227423;79;50301;-75
2022/12/14 03:27:19;;;;;;;;;;;;;;;18.20;56.18;100216.48;2242537;79;51606;-75
2022/12/14 03:30:21;;;;;;;;;;;;;;;18.25;56.12;100212.72;2228397;79;52594;-75
2022/12/14 03:33:23;;;;;;;;;;;;;;;18.31;55.99;100216.48;2216807;79;50895;-75
2022/12/14 03:36:38;;;;;;;;;;;;;;;18.33;55.89;100216.61;2248102;79;50317;-74
2022/12/14 03:39:40;;;;;;;;;;;;;;;18.35;55.82;100207.05;2226611;79;51632;-75
2022/12/14 03:42:43;;;;;;;;;;;;;;;18.32;55.83;100200.23;2218021;79;50174;-74
2022/12/14 03:45:46;;;;;;;;;;;;;;;18.31;55.79;100198.55;2245592;79;50782;-75
2022/12/14 03:48:50;;;;;;;;;;;;;;;18.28;55.80;100202.45;2229904;79;51472;-75
2022/12/14 03:51:59;;;;;;;;;;;;;;;18.23;55.84;100200.03;2213712;79;51519;-75
2022/12/14 03:55:02;;;;;;;;;;;;;;;18.20;55.86;100196.40;2224236;79;52941;-75
2022/12/14 03:58:08;;;;;;;;;;;;;;;18.14;55.95;100195.84;2213334;78;50441;-75
2022/12/14 04:01:12;;;;;;;;;;;;;;;18.09;56.04;100189.71;2244540;79;50282;-75
2022/12/14 04:04:24;;;;;;;;;;;;;;;18.06;56.15;100186.91;2220892;79;50665;-74
2022/12/14 04:07:36;;;;;;;;;;;;;;;18.05;56.30;100186.56;2242174;78;52596;-73
2022/12/14 04:20:59;;;;;;;;;;;;;;;18.18;56.10;100177.84;2220294;79;22445;-75
2022/12/14 04:27:16;;;;;;;;;;;;;;;18.23;56.01;100170.05;2197356;79;23051;-74
2022/12/14 04:30:18;;;;;;;;;;;;;;;18.28;55.94;100164.12;2247103;78;51507;-75
2022/12/14 04:36:40;;;;;;;;;;;;;;;18.27;55.96;100165.16;2237106;79;22330;-74
2022/12/14 04:39:55;;;;;;;;;;;;;;;18.22;56.08;100168.41;2221054;79;51694;-73
2022/12/14 04:42:58;;;;;;;;;;;;;;;18.19;56.24;100165.30;2247327;79;50718;-73
2022/12/14 04:46:13;;;;;;;;;;;;;;;18.17;56.18;100161.98;2215530;79;50277;-73
2022/12/14 04:49:22;;;;;;;;;;;;;;;18.14;56.15;100159.69;2246017;79;51549;-73
2022/12/14 04:52:26;;;;;;;;;;;;;;;18.10;56.17;100150.38;2248136;79;51503;-74
2022/12/14 04:55:29;;;;;;;;;;;;;;;18.05;56.28;100147.75;2229040;79;51512;-74
2022/12/14 04:58:30;;;;;;;;;;;;;;;18.05;56.30;100135.70;2211371;80;51417;-74
2022/12/14 05:01:46;;;;;;;;;;;;;;;18.12;56.17;100140.30;2237824;79;50266;-74
2022/12/14 05:04:58;;;;;;;;;;;;;;;18.13;56.26;100137.94;2241834;79;50698;-73
2022/12/14 05:08:02;;;;;;;;;;;;;;;18.12;56.24;100133.09;2211357;80;51498;-75
2022/12/14 05:11:05;;;;;;;;;;;;;;;18.18;56.14;100128.81;2201770;79;51111;-75
2022/12/14 05:14:08;;;;;;;;;;;;;;;18.21;56.06;100119.05;2211280;79;51624;-75
2022/12/14 05:17:10;;;;;;;;;;;;;;;18.24;56.00;100120.03;2234737;79;49815;-75
2022/12/14 05:20:15;;;;;;;;;;;;;;;18.27;55.93;100116.95;2220238;79;50034;-75
2022/12/14 05:23:17;;;;;;;;;;;;;;;18.28;55.85;100114.58;2180240;79;51266;-73
2022/12/14 05:26:18;;;;;;;;;;;;;;;18.27;55.79;100106.24;2188805;79;53748;-75
2022/12/14 05:29:20;;;;;;;;;;;;;;;18.25;55.74;100110.95;2183070;80;50340;-75
2022/12/14 05:32:22;;;;;;;;;;;;;;;18.22;55.74;100108.16;2240661;79;51613;-74
2022/12/14 05:35:24;;;;;;;;;;;;;;;18.15;55.87;100095.73;2216354;79;51055;-73
2022/12/14 05:38:25;;;;;;;;;;;;;;;18.12;56.09;100101.48;2218319;79;51527;-72
2022/12/14 05:41:27;;;;;;;;;;;;;;;18.10;55.95;100098.16;2247219;79;51303;-73
2022/12/14 05:44:28;;;;;;;;;;;;;;;18.10;55.83;100088.80;2192188;80;53683;-72
2022/12/14 05:47:30;;;;;;;;;;;;;;;18.06;55.82;100082.49;2212564;79;49196;-72
2022/12/14 05:50:31;;;;;;;;;;;;;;;18.06;55.80;100074.46;2204302;78;50398;-73
2022/12/14 05:53:34;;;;;;;;;;;;;;;18.15;55.70;100073.80;2196696;79;50341;-74
2022/12/14 05:56:35;;;;;;;;;;;;;;;18.14;55.69;100061.96;2217589;79;50856;-73
2022/12/14 05:59:37;;;;;;;;;;;;;;;18.15;55.58;100058.25;2190359;79;49546;-72
2022/12/14 06:02:39;;;;;;;;;;;;;;;18.17;55.52;100046.84;2191893;80;52332;-73
2022/12/14 06:05:41;;;;;;;;;;;;;;;18.22;55.51;100052.44;2203662;79;51524;-72
2022/12/14 06:08:43;;;;;;;;;;;;;;;18.21;55.44;100052.10;2218069;79;51439;-71
2022/12/14 06:11:45;;;;;;;;;;;;;;;18.21;55.40;100044.92;2204980;79;51176;-73
2022/12/14 06:14:46;;;;;;;;;;;;;;;18.25;55.33;100044.83;2241630;79;51590;-72
2022/12/14 06:17:48;;;;;;;;;;;;;;;18.26;55.21;100045.66;2199548;79;50471;-73
2022/12/14 06:20:49;;;;;;;;;;;;;;;18.23;55.15;100048.72;2227362;79;50389;-74
2022/12/14 06:23:51;;;;;;;;;;;;;;;18.19;55.09;100046.14;2188750;79;51251;-73
2022/12/14 06:26:52;;;;;;;;;;;;;;;18.16;55.09;100052.71;2230935;79;50651;-74
2022/12/14 06:29:54;;;;;;;;;;;;;;;18.17;54.96;100050.86;2200539;79;50694;-75
2022/12/14 06:32:56;;;;;;;;;;;;;;;18.11;54.96;100043.59;2232235;79;50726;-73
2022/12/14 06:35:57;;;;;;;;;;;;;;;18.11;54.87;100039.56;2229878;79;51199;-74
2022/12/14 06:39:03;;;;;;;;;;;;;;;18.12;55.01;100030.02;2229563;79;51470;-74
2022/12/14 06:42:05;;;;;;;;;;;;;;;18.15;55.11;100040.84;2200163;79;50855;-73
2022/12/14 06:45:06;;;;;;;;;;;;;;;18.19;55.08;100035.43;2244209;79;49984;-72
2022/12/14 06:48:08;;;;;;;;;;;;;;;18.22;55.02;100037.20;2200530;79;50442;-72
2022/12/14 06:51:10;;;;;;;;;;;;;;;18.20;54.97;100032.54;2195344;79;50452;-72
2022/12/14 06:54:11;;;;;;;;;;;;;;;18.21;54.93;100029.34;2214755;79;51397;-72
2022/12/14 06:57:13;;;;;;;;;;;;;;;18.23;54.92;100029.46;2183963;79;51536;-72
2022/12/14 07:00:15;;;;;;;;;;;;;;;18.23;54.93;100033.48;2184049;79;52485;-72
2022/12/14 07:03:16;;;;;;;;;;;;;;;18.26;54.84;100025.56;2188059;80;50355;-72
2022/12/14 07:06:18;;;;;;;;;;;;;;;18.25;54.83;100030.62;2192607;79;50765;-71
2022/12/14 07:09:19;;;;;;;;;;;;;;;18.25;54.72;100027.94;2198064;79;53744;-72
2022/12/14 07:12:21;;;;;;;;;;;;;;;18.22;54.58;100031.02;2201162;79;51487;-72
2022/12/14 07:15:23;;;;;;;;;;;;;;;18.16;54.61;100015.72;2202436;79;51309;-73
2022/12/14 07:18:24;;;;;;;;;;;;;;;18.14;54.59;100017.27;2220729;79;51561;-72
2022/12/14 07:21:26;;;;;;;;;;;;;;;18.11;54.60;100010.12;2222495;78;50745;-72
2022/12/14 07:24:28;;;;;;;;;;;;;;;18.09;54.62;100013.01;2159632;79;49515;-71
2022/12/14 07:27:29;;;;;;;;;;;;;;;18.08;54.66;100010.52;2237203;79;50753;-72
2022/12/14 07:30:31;;;;;;;;;;;;;;;18.09;54.65;100002.81;2232110;78;51519;-70
2022/12/14 07:33:32;;;;;;;;;;;;;;;18.12;54.56;99997.06;2228463;79;51535;-71
2022/12/14 07:36:34;;;;;;;;;;;;;;;18.14;54.49;99997.19;2176634;79;52598;-72
2022/12/14 07:39:35;;;;;;;;;;;;;;;18.18;54.40;99992.25;2209719;79;51484;-70
2022/12/14 07:42:37;;;;;;;;;;;;;;;18.20;54.28;99984.86;2205725;79;51528;-71
2022/12/14 07:45:39;;;;;;;;;;;;;;;18.23;54.17;99987.13;2219479;78;51636;-72
2022/12/14 07:48:45;;;;;;;;;;;;;;;18.25;54.11;99986.44;2185038;80;52862;-72
2022/12/14 07:51:47;;;;;;;;;;;;;;;18.30;53.95;99993.36;2216994;78;50771;-72
2022/12/14 07:54:48;;;;;;;;;;;;;;;18.33;53.87;99987.61;2235015;78;50413;-72
2022/12/14 07:57:50;;;;;;;;;;;;;;;18.38;53.70;99985.16;2201018;79;49984;-72
2022/12/14 08:00:51;;;;;;;;;;;;;;;18.40;53.63;99989.81;2180088;79;50154;-74
2022/12/14 08:03:54;;;;;;;;;;;;;;;18.39;53.59;99993.50;2226317;79;50636;-72
2022/12/14 08:06:55;;;;;;;;;;;;;;;18.35;53.63;99997.62;2228851;79;50329;-72
2022/12/14 08:09:57;;;;;;;;;;;;;;;18.28;53.74;99990.05;2230739;79;49935;-72
2022/12/14 08:12:58;;;;;;;;;;;;;;;18.22;53.79;99986.31;2179210;79;50900;-73
2022/12/14 08:16:04;;;;;;;;;;;;;;;18.17;53.83;99989.27;2230042;79;50733;-74
2022/12/14 08:19:05;;;;;;;;;;;;;;;18.13;53.86;99990.16;2198840;79;51540;-71
2022/12/14 08:22:07;;;;;;;;;;;;;;;18.08;53.97;99985.08;2203598;79;51508;-72
2022/12/14 08:25:09;;;;;;;;;;;;;;;18.09;54.07;99984.08;2199706;79;52408;-71
2022/12/14 08:28:10;;;;;;;;;;;;;;;18.11;53.99;99979.33;2200583;79;51458;-71
2022/12/14 08:31:13;;;;;;;;;;;;;;;18.15;53.85;99976.59;2198859;79;51455;-72
2022/12/14 08:34:21;;;;;;;;;;;;;;;18.19;53.78;99975.18;2227890;79;50334;-72
2022/12/14 08:37:21;;;;;;;;;;;;;;;18.22;53.63;99975.61;2227505;79;22400;-71
2022/12/14 08:40:23;;;;;;;;;;;;;;;18.24;53.59;99974.90;2184342;79;50447;-71
2022/12/14 08:43:24;;;;;;;;;;;;;;;18.28;53.52;99972.64;2203372;79;50720;-71
2022/12/14 08:46:26;;;;;;;;;;;;;;;18.31;53.40;99962.87;2225055;79;50705;-71
2022/12/14 08:49:28;;;;;;;;;;;;;;;18.35;53.29;99973.52;2216571;79;51145;-71
2022/12/14 08:52:29;;;;;;;;;;;;;;;18.40;53.17;99961.69;2247851;79;50328;-72
2022/12/14 08:55:31;;;;;;;;;;;;;;;18.43;53.13;99963.97;2186495;79;50608;-71
2022/12/14 08:58:32;;;;;;;;;;;;;;;18.50;53.02;99969.38;2244148;78;50633;-71
2022/12/14 09:01:34;;;;;;;;;;;;;;;18.51;52.90;99954.94;2169115;79;51019;-72
2022/12/14 09:04:35;;;;;;;;;;;;;;;18.50;52.86;99958.66;2240966;78;50575;-71
2022/12/14 09:07:37;;;;;;;;;;;;;;;18.42;53.02;99956.13;2235752;78;50625;-71
2022/12/14 09:10:39;;;;;;;;;;;;;;;18.37;53.09;99962.09;2248307;78;51524;-71
2022/12/14 09:13:41;;;;;;;;;;;;;;;18.32;53.15;99955.69;2210756;78;52526;-71
2022/12/14 09:16:42;;;;;;;;;;;;;;;18.26;53.25;99951.92;2208357;79;50797;-71
2022/12/14 09:19:44;;;;;;;;;;;;;;;18.19;53.32;99948.41;2194802;81;50726;-71
2022/12/14 09:22:45;;;;;;;;;;;;;;;18.18;53.42;99951.57;2218160;79;50277;-73
2022/12/14 09:25:47;;;;;;;;;;;;;;;18.18;53.47;99946.73;2218844;79;51303;-72
2022/12/14 09:28:52;;;;;;;;;;;;;;;18.21;53.49;99954.37;2196903;79;50642;-72
2022/12/14 09:31:54;;;;;;;;;;;;;;;18.27;53.38;99948.23;2228675;79;50678;-74
2022/12/14 09:34:55;;;;;;;;;;;;;;;18.30;53.23;99939.80;2231568;79;50655;-72
2022/12/14 09:37:57;;;;;;;;;;;;;;;18.34;53.02;99938.88;2160074;80;51459;-72
2022/12/14 09:40:59;;;;;;;;;;;;;;;18.37;52.90;99935.80;2185193;79;51501;-73
2022/12/14 09:44:09;;;;;;;;;;;;;;;18.39;52.79;99934.58;2215199;79;50440;-71
2022/12/14 09:47:18;;;;;;;;;;;;;;;18.42;52.69;99923.98;2220541;79;51623;-72
2022/12/14 09:50:20;;;;;;;;;;;;;;;18.45;52.60;99917.72;2228395;79;51551;-73
2022/12/14 09:53:21;;;;;;;;;;;;;;;18.48;52.47;99913.30;2238936;78;51604;-75
2022/12/14 09:56:23;;;;;;;;;;;;;;;18.52;52.38;99907.02;2228246;79;51331;-73
2022/12/14 09:59:25;;;;;;;;;;;;;;;18.56;52.33;99910.14;2248322;79;51460;-73
2022/12/14 10:02:37;;;;;;;;;;;;;;;18.53;52.29;99903.85;2213802;79;51728;-73
2022/12/14 10:05:47;;;;;;;;;;;;;;;18.49;52.39;99902.06;2226930;78;50307;-73
2022/12/14 10:08:50;;;;;;;;;;;;;;;18.42;52.52;99904.73;2231593;79;51570;-74
2022/12/14 10:11:53;;;;;;;;;;;;;;;18.35;52.58;99900.38;2223225;78;51399;-73
2022/12/14 10:15:09;;;;;;;;;;;;;;;18.30;52.72;99892.11;2206421;80;52382;-73
2022/12/14 10:18:12;;;;;;;;;;;;;;;18.24;52.83;99885.19;2211628;80;51556;-74
2022/12/14 10:21:14;;;;;;;;;;;;;;;18.21;52.89;99882.06;2242412;79;50846;-74
2022/12/14 10:24:23;;;;;;;;;;;;;;;18.22;52.91;99880.55;2248115;79;51533;-74
2022/12/14 10:27:25;;;;;;;;;;;;;;;18.26;52.87;99880.96;2211227;79;51710;-74
2022/12/14 10:30:27;;;;;;;;;;;;;;;18.30;52.80;99870.17;2227542;79;50402;-72
2022/12/14 10:33:29;;;;;;;;;;;;;;;18.35;52.70;99871.73;2232679;79;50279;-74
2022/12/14 10:36:32;;;;;;;;;;;;;;;18.39;52.58;99866.80;2230851;79;51514;-75
2022/12/14 10:39:39;;;;;;;;;;;;;;;18.40;52.52;99861.25;2188835;80;52412;-75
2022/12/14 10:42:48;;;;;;;;;;;;;;;18.41;52.48;99852.70;2213555;79;50680;-76
2022/12/14 10:45:51;;;;;;;;;;;;;;;18.44;52.38;99854.45;2211846;80;50015;-75
2022/12/14 10:48:54;;;;;;;;;;;;;;;18.49;52.28;99847.97;2213313;79;50304;-76
2022/12/14 10:52:07;;;;;;;;;;;;;;;18.53;52.19;99845.73;2184084;80;51743;-76
2022/12/14 10:55:12;;;;;;;;;;;;;;;18.57;52.09;99839.44;2247228;79;51505;-75
2022/12/14 10:58:14;;;;;;;;;;;;;;;18.58;51.98;99842.45;2215418;79;50281;-76
2022/12/14 11:01:15;;;;;;;;;;;;;;;18.52;52.02;99844.06;2188351;79;50100;-75
2022/12/14 11:04:30;;;;;;;;;;;;;;;18.47;52.07;99839.33;2195781;79;51620;-74
2022/12/14 11:07:33;;;;;;;;;;;;;;;18.41;52.15;99832.61;2226409;79;50680;-76
2022/12/14 11:10:35;;;;;;;;;;;;;;;18.36;52.18;99830.52;2227674;79;50675;-76
2022/12/14 11:13:37;;;;;;;;;;;;;;;18.30;52.32;99818.47;2240150;78;50219;-75
2022/12/14 11:16:39;;;;;;;;;;;;;;;18.25;52.38;99811.03;2195359;80;51563;-76
2022/12/14 11:19:41;;;;;;;;;;;;;;;18.23;52.62;99806.39;2247924;79;50779;-75
2022/12/14 11:22:44;;;;;;;;;;;;;;;18.28;52.60;99803.41;2231672;78;51506;-76
2022/12/14 11:25:46;;;;;;;;;;;;;;;18.32;53.39;99801.70;2238719;78;51592;-75
2022/12/14 11:28:48;;;;;;;;;;;;;;;18.34;53.40;99803.14;2199659;79;51331;-76
2022/12/14 11:31:54;;;;;;;;;;;;;;;18.37;53.44;99800.05;2250446;79;50722;-76
2022/12/14 11:34:55;;;;;;;;;;;;;;;18.44;53.34;99794.17;2240162;78;22407;-76
2022/12/14 11:38:00;;;;;;;;;;;;;;;18.48;53.25;99799.45;2236777;79;50756;-76
2022/12/14 11:41:02;;;;;;;;;;;;;;;18.54;53.15;99801.83;2209546;79;49689;-75
2022/12/14 11:44:05;;;;;;;;;;;;;;;18.58;53.07;99796.91;2234867;79;50792;-77
2022/12/14 11:47:08;;;;;;;;;;;;;;;18.63;52.97;99799.28;2212420;79;50788;-76
2022/12/14 11:50:24;;;;;;;;;;;;;;;18.59;52.99;99802.56;2212118;80;50730;-76
2022/12/14 11:53:25;;;;;;;;;;;;;;;18.56;53.08;99796.28;2192461;79;51512;-74
2022/12/14 11:56:27;;;;;;;;;;;;;;;18.52;53.12;99793.68;2232871;79;50641;-76
2022/12/14 11:59:30;;;;;;;;;;;;;;;18.44;53.19;99798.19;2220332;79;51451;-77
2022/12/14 12:02:32;;;;;;;;;;;;;;;18.36;53.36;99791.69;2218815;79;50710;-75
2022/12/14 12:05:35;;;;;;;;;;;;;;;18.30;53.49;99794.38;2179502;79;49434;-76
2022/12/14 12:08:38;;;;;;;;;;;;;;;18.29;53.58;99781.50;2228816;79;50280;-75
2022/12/14 12:11:39;;;;;;;;;;;;;;;18.32;53.59;99781.61;2232250;79;51259;-76
2022/12/14 12:14:41;;;;;;;;;;;;;;;18.35;53.53;99779.34;2218370;79;51534;-76
2022/12/14 12:17:43;;;;;;;;;;;;;;;18.38;53.44;99787.48;2217191;79;50609;-76
2022/12/14 12:20:46;;;;;;;;;;;;;;;18.42;53.25;99785.54;2224494;79;50291;-76
2022/12/14 12:24:04;;;;;;;;;;;;;;;18.43;53.50;99775.65;2234587;79;50426;-76
2022/12/14 12:27:12;;;;;;;;;;;;;;;18.47;53.41;99776.88;2212001;79;51507;-76
2022/12/14 12:30:11;;;;;;;;;;;;;;;18.50;53.26;99775.97;2211696;79;23384;-75
2022/12/14 12:33:21;;;;;;;;;;;;;;;18.55;53.20;99767.81;2213353;79;51434;-75
2022/12/14 12:36:22;;;;;;;;;;;;;;;18.61;53.08;99767.02;2236177;79;51642;-76
2022/12/14 12:39:24;;;;;;;;;;;;;;;18.64;53.04;99763.41;2216173;78;50588;-76
2022/12/14 12:42:33;;;;;;;;;;;;;;;18.69;52.87;99764.13;2224564;78;51749;-76
2022/12/14 12:45:37;;;;;;;;;;;;;;;18.69;52.85;99768.16;2230700;79;50657;-77
2022/12/14 12:48:43;;;;;;;;;;;;;;;18.63;52.88;99757.75;2232583;79;50773;-73
2022/12/14 12:51:46;;;;;;;;;;;;;;;18.55;53.02;99748.58;2234332;78;51368;-75
2022/12/14 12:54:55;;;;;;;;;;;;;;;18.49;53.10;99751.53;2205025;79;50923;-74
2022/12/14 12:57:57;;;;;;;;;;;;;;;18.42;53.26;99754.73;2210109;79;51525;-75
2022/12/14 13:01:03;;;;;;;;;;;;;;;18.36;53.36;99750.17;2216737;78;50408;-76
2022/12/14 13:04:09;;;;;;;;;;;;;;;18.34;53.44;99748.73;2220480;78;50281;-75
2022/12/14 13:07:26;;;;;;;;;;;;;;;18.34;53.46;99743.38;2211876;79;22783;-74
2022/12/14 13:10:29;;;;;;;;;;;;;;;18.37;53.39;99745.64;2211840;80;52703;-74
2022/12/14 13:13:32;;;;;;;;;;;;;;;18.42;53.24;99745.86;2212079;79;50762;-75
2022/12/14 13:16:34;;;;;;;;;;;;;;;18.46;53.18;99739.08;2247778;78;50710;-74
2022/12/14 13:19:37;;;;;;;;;;;;;;;18.48;53.08;99739.17;2195510;79;52567;-74
2022/12/14 13:22:39;;;;;;;;;;;;;;;18.51;52.97;99735.27;2236834;79;50423;-74
2022/12/14 13:25:48;;;;;;;;;;;;;;;18.56;52.88;99737.34;2247850;79;50622;-75
2022/12/14 13:29:01;;;;;;;;;;;;;;;18.58;52.89;99731.27;2245777;78;50322;-75
2022/12/14 13:32:10;;;;;;;;;;;;;;;18.63;52.82;99726.12;2182395;80;50914;-73
2022/12/14 13:35:16;;;;;;;;;;;;;;;18.66;52.70;99724.36;2214547;79;51638;-74
2022/12/14 13:38:28;;;;;;;;;;;;;;;18.70;52.52;99726.92;2212167;79;50796;-73
2022/12/14 13:41:32;;;;;;;;;;;;;;;18.73;52.33;99727.87;2247913;79;51510;-74
2022/12/14 13:44:41;;;;;;;;;;;;;;;18.70;52.26;99725.58;2199303;80;49805;-74
2022/12/14 13:47:44;;;;;;;;;;;;;;;18.67;52.30;99728.67;2199406;79;50402;-73
2022/12/14 13:50:46;;;;;;;;;;;;;;;18.59;52.37;99727.02;2221047;78;50358;-75
2022/12/14 13:53:48;;;;;;;;;;;;;;;18.53;52.41;99719.00;2202190;79;50271;-74
2022/12/14 13:56:50;;;;;;;;;;;;;;;18.44;52.55;99718.36;2188321;79;52415;-74
2022/12/14 13:59:52;;;;;;;;;;;;;;;18.41;52.58;99716.91;2212381;80;50672;-73
2022/12/14 14:02:54;;;;;;;;;;;;;;;18.38;52.59;99715.17;2234466;79;50277;-73
2022/12/14 14:05:56;;;;;;;;;;;;;;;18.38;52.62;99711.97;2248933;78;51550;-74
2022/12/14 14:09:02;;;;;;;;;;;;;;;18.39;52.57;99710.11;2201129;79;52606;-73
2022/12/14 14:12:04;;;;;;;;;;;;;;;18.43;52.45;99716.72;2248552;79;23035;-73
2022/12/14 14:15:10;;;;;;;;;;;;;;;18.45;52.40;99708.79;2214218;78;50645;-73
2022/12/14 14:18:13;;;;;;;;;;;;;;;18.49;52.25;99700.63;2222443;79;51616;-74
2022/12/14 14:21:23;;;;;;;;;;;;;;;18.53;52.20;99701.06;2212801;79;51698;-74
2022/12/14 14:24:26;;;;;;;;;;;;;;;18.57;52.08;99699.61;2223348;79;51510;-73
2022/12/14 14:27:37;;;;;;;;;;;;;;;18.63;51.89;99700.66;2184634;79;50735;-74
2022/12/14 14:30:42;;;;;;;;;;;;;;;18.66;51.84;99694.36;2212292;80;50436;-74
2022/12/14 14:33:48;;;;;;;;;;;;;;;18.72;51.67;99687.34;2238983;78;51078;-74
2022/12/14 14:36:49;;;;;;;;;;;;;;;18.74;51.57;99679.93;2223387;79;50444;-74
2022/12/14 14:39:58;;;;;;;;;;;;;;;18.75;51.49;99670.03;2212307;80;50128;-74
2022/12/14 14:43:04;;;;;;;;;;;;;;;18.71;51.51;99672.31;2214274;79;50167;-73
2022/12/14 14:46:07;;;;;;;;;;;;;;;18.63;51.61;99663.97;2189466;79;51207;-74
2022/12/14 14:49:10;;;;;;;;;;;;;;;18.55;51.77;99663.34;2248558;78;51523;-74
2022/12/14 14:52:29;;;;;;;;;;;;;;;18.47;51.87;99669.73;2231115;79;51491;-74
2022/12/14 14:55:36;;;;;;;;;;;;;;;18.40;51.99;99663.05;2212294;79;51552;-74
2022/12/14 14:58:38;;;;;;;;;;;;;;;18.38;52.03;99658.92;2209018;79;51291;-73
2022/12/14 15:01:41;;;;;;;;;;;;;;;18.39;52.00;99662.72;2241500;79;52629;-73
2022/12/14 15:04:49;;;;;;;;;;;;;;;18.41;51.92;99658.51;2247113;79;50773;-76
2022/12/14 15:07:50;;;;;;;;;;;;;;;18.42;51.91;99665.01;2224493;79;50490;-75
2022/12/14 15:10:52;;;;;;;;;;;;;;;18.45;51.82;99651.20;2230915;79;51114;-75
2022/12/14 15:13:55;;;;;;;;;;;;;;;18.46;51.79;99655.52;2247331;79;50205;-75
2022/12/14 15:16:57;;;;;;;;;;;;;;;18.49;51.72;99661.80;2224265;79;50293;-75
2022/12/14 15:19:59;;;;;;;;;;;;;;;18.52;51.63;99650.36;2218942;79;50258;-75
2022/12/14 15:23:00;;;;;;;;;;;;;;;18.53;51.57;99641.31;2198807;79;52364;-74
2022/12/14 15:26:02;;;;;;;;;;;;;;;18.56;51.52;99643.58;2248171;78;50165;-73
2022/12/14 15:29:04;;;;;;;;;;;;;;;18.59;51.44;99647.98;2248261;78;51457;-73
2022/12/14 15:32:05;;;;;;;;;;;;;;;18.60;51.40;99652.33;2229827;78;51486;-73
2022/12/14 15:35:08;;;;;;;;;;;;;;;18.65;51.29;99654.37;2243420;79;51544;-74
2022/12/14 15:38:26;;;;;;;;;;;;;;;18.67;51.15;99657.15;2242788;78;51009;-74
2022/12/14 15:41:29;;;;;;;;;;;;;;;18.73;51.05;99664.89;2246862;79;50579;-74
2022/12/14 15:44:30;;;;;;;;;;;;;;;18.77;50.99;99668.82;2218544;79;50804;-73
2022/12/14 15:47:32;;;;;;;;;;;;;;;18.76;50.89;99661.00;2247942;78;51441;-75
2022/12/14 15:50:33;;;;;;;;;;;;;;;18.69;50.98;99659.63;2218560;79;51429;-73
2022/12/14 15:53:36;;;;;;;;;;;;;;;18.61;51.07;99657.17;2248241;79;50728;-74
2022/12/14 15:56:38;;;;;;;;;;;;;;;18.52;51.22;99656.54;2248028;78;51565;-74
2022/12/14 15:59:40;;;;;;;;;;;;;;;18.45;51.34;99655.22;2248360;79;51557;-73
2022/12/14 16:02:42;;;;;;;;;;;;;;;18.40;51.41;99649.66;2229612;79;51187;-73
2022/12/14 16:05:44;;;;;;;;;;;;;;;18.41;51.48;99651.81;2211748;79;51630;-74
2022/12/14 16:08:48;;;;;;;;;;;;;;;18.44;51.50;99653.55;2225493;78;50415;-74